Time;durP1;ratioP1;P1;durP2;ratioP2;P2;SDS_P1;SDS_P2;PMS_P1;PMS_P2;Temp;Humidity;BMP_temperature;BMP_pressure;BME280_temperature;BME280_humidity;BME280_pressure;Samples;Min_cycle;Max_cycle;Signal;HPM_P1;HPM_P2
2022/12/04 00:01:35;;;;;;;8.17;5.97;;;7.80;76.60;7.60;95963.00;;;;5105332;28;20237;-84
2022/12/04 00:04:03;;;;;;;10.40;6.40;;;7.80;76.60;7.60;95965.00;;;;5106943;28;20257;-84
2022/12/04 00:06:32;;;;;;;8.67;5.90;;;7.80;76.70;7.60;95967.00;;;;5101538;28;20620;-84
2022/12/04 00:09:01;;;;;;;7.50;6.37;;;7.80;76.70;7.60;95975.00;;;;5106784;28;20217;-84
2022/12/04 00:11:31;;;;;;;9.33;6.27;;;7.80;76.70;7.60;95973.00;;;;5107300;28;20194;-84
2022/12/04 00:13:59;;;;;;;8.00;5.77;;;7.80;76.60;7.60;95974.00;;;;5104661;28;20268;-84
2022/12/04 00:16:29;;;;;;;7.93;6.17;;;7.80;76.50;7.60;95973.00;;;;5102120;28;20198;-85
2022/12/04 00:18:57;;;;;;;8.33;5.90;;;7.80;76.50;7.60;95967.00;;;;5104239;28;20202;-84
2022/12/04 00:21:37;;;;;;;8.63;6.70;;;7.80;76.50;7.60;95964.00;;;;5103709;28;20585;-84
2022/12/04 00:24:06;;;;;;;9.30;6.90;;;7.80;76.40;7.60;95955.00;;;;5105678;28;21218;-84
2022/12/04 00:26:34;;;;;;;8.27;6.30;;;7.80;76.40;7.60;95962.00;;;;5106816;28;20299;-84
2022/12/04 00:29:01;;;;;;;7.10;6.20;;;7.80;76.40;7.50;95966.00;;;;5112125;28;20204;-84
2022/12/04 00:31:31;;;;;;;9.60;6.17;;;7.80;76.30;7.60;95966.00;;;;5108893;28;20213;-84
2022/12/04 00:33:58;;;;;;;8.80;6.70;;;7.80;76.40;7.60;95976.00;;;;5105797;28;20656;-84
2022/12/04 00:36:28;;;;;;;10.07;6.97;;;7.80;76.30;7.50;95979.00;;;;5107216;28;20209;-85
2022/12/04 00:38:56;;;;;;;6.97;5.63;;;7.80;76.30;7.60;95974.00;;;;5106131;28;20298;-84
2022/12/04 00:41:27;;;;;;;8.33;6.50;;;7.80;76.50;7.60;95978.00;;;;5109177;28;20234;-84
2022/12/04 00:43:54;;;;;;;8.17;6.30;;;7.80;76.50;7.60;95964.00;;;;5105476;28;20214;-85
2022/12/04 00:46:23;;;;;;;7.27;5.63;;;7.80;76.50;7.60;95960.00;;;;5108083;28;20652;-84
2022/12/04 00:48:50;;;;;;;7.80;5.97;;;7.80;76.70;7.60;95954.00;;;;5106216;28;20294;-85
2022/12/04 00:51:20;;;;;;;9.27;6.20;;;7.80;76.70;7.60;95966.00;;;;5105852;28;20230;-85
2022/12/04 00:53:47;;;;;;;8.93;6.33;;;7.80;76.70;7.60;95955.00;;;;5107448;28;20234;-85
2022/12/04 00:56:19;;;;;;;7.80;6.10;;;7.80;76.70;7.60;95964.00;;;;5107256;28;20297;-84
2022/12/04 00:58:48;;;;;;;8.20;5.90;;;7.80;76.70;7.60;95973.00;;;;5107139;28;20234;-85
2022/12/04 01:01:19;;;;;;;8.57;5.57;;;7.80;76.70;7.60;95964.00;;;;5107401;28;20294;-84
2022/12/04 01:03:47;;;;;;;8.77;6.00;;;7.80;76.70;7.60;95972.00;;;;5106055;28;20227;-85
2022/12/04 01:06:23;;;;;;;8.77;6.30;;;7.80;76.70;7.70;95977.00;;;;5106984;28;20194;-85
2022/12/04 01:08:53;;;;;;;8.30;6.17;;;7.90;76.70;7.60;95980.00;;;;5107031;28;20285;-84
2022/12/04 01:11:21;;;;;;;13.23;6.77;;;7.80;76.40;7.70;95977.00;;;;5107735;28;20245;-84
2022/12/04 01:13:50;;;;;;;9.33;6.37;;;7.80;76.50;7.60;95979.00;;;;5104664;28;20305;-85
2022/12/04 01:16:20;;;;;;;8.97;6.83;;;7.80;76.60;7.60;95974.00;;;;5108284;28;20233;-84
2022/12/04 01:18:48;;;;;;;9.23;6.17;;;7.90;76.70;7.70;95981.00;;;;5107348;28;20694;-85
2022/12/04 01:21:15;;;;;;;8.87;6.23;;;7.90;76.80;7.70;95977.00;;;;5108316;28;20297;-85
2022/12/04 01:23:43;;;;;;;8.57;6.53;;;7.90;76.80;7.70;95980.00;;;;5107779;28;20792;-84
2022/12/04 01:26:10;;;;;;;8.17;6.30;;;7.90;76.90;7.70;95976.00;;;;5097563;28;20669;-84
2022/12/04 01:28:38;;;;;;;8.80;6.80;;;7.90;76.90;7.70;95987.00;;;;5097568;28;20294;-85
2022/12/04 01:31:11;;;;;;;9.60;7.50;;;7.90;76.90;7.70;95985.00;;;;5102477;28;20278;-84
2022/12/04 01:33:40;;;;;;;8.70;6.40;;;7.90;76.90;7.70;95985.00;;;;5106205;28;20360;-85
2022/12/04 01:36:11;;;;;;;10.80;7.13;;;7.90;76.90;7.70;95975.00;;;;5104103;28;20277;-84
2022/12/04 01:38:39;;;;;;;9.33;7.13;;;7.90;77.00;7.70;95974.00;;;;5104020;28;20214;-84
2022/12/04 01:41:09;;;;;;;9.33;6.60;;;7.90;77.20;7.70;95981.00;;;;5106965;28;20303;-85
2022/12/04 01:43:38;;;;;;;11.30;7.70;;;7.90;77.20;7.70;95987.00;;;;5104336;28;20290;-82
2022/12/04 01:46:08;;;;;;;11.10;6.80;;;7.90;77.20;7.70;95957.00;;;;5107542;28;20232;-85
2022/12/04 01:48:41;;;;;;;10.03;6.67;;;7.90;77.00;7.70;95956.00;;;;5106780;28;20241;-84
2022/12/04 01:51:17;;;;;;;9.33;7.10;;;7.90;77.10;7.70;95962.00;;;;5104802;28;20205;-84
2022/12/04 01:53:50;;;;;;;10.13;6.57;;;7.90;77.30;7.70;95971.00;;;;5101753;28;20222;-84
2022/12/04 01:56:21;;;;;;;12.30;7.87;;;7.90;77.20;7.70;95963.00;;;;5104409;28;20745;-84
2022/12/04 01:58:54;;;;;;;10.00;7.00;;;7.90;77.30;7.70;95959.00;;;;5104450;28;20237;-85
2022/12/04 02:01:23;;;;;;;10.20;7.00;;;7.90;77.20;7.80;95958.00;;;;5104180;28;20206;-84
2022/12/04 02:03:50;;;;;;;11.33;7.77;;;7.90;77.30;7.80;95959.00;;;;5103328;28;20305;-84
2022/12/04 02:06:17;;;;;;;9.77;7.80;;;8.00;77.40;7.80;95971.00;;;;5102872;28;20201;-84
2022/12/04 02:08:45;;;;;;;14.17;8.20;;;8.00;77.30;7.80;95957.00;;;;5102297;28;20203;-84
2022/12/04 02:11:26;;;;;;;9.27;7.43;;;8.00;77.30;7.80;95966.00;;;;5102112;28;20627;-84
2022/12/04 02:14:07;;;;;;;14.93;8.40;;;8.00;77.30;7.80;95960.00;;;;5104741;28;20312;-85
2022/12/04 02:16:46;;;;;;;13.17;7.77;;;8.00;77.30;7.80;95958.00;;;;5102322;28;20278;-84
2022/12/04 02:19:56;;;;;;;11.67;7.57;;;8.00;77.30;7.80;95946.00;;;;5106615;28;20206;-84
2022/12/04 02:22:47;;;;;;;9.73;7.07;;;8.00;77.30;7.80;95934.00;;;;5104243;28;20624;-85
2022/12/04 02:25:28;;;;;;;11.27;7.20;;;8.00;77.40;7.80;95927.00;;;;5099870;28;21245;-85
2022/12/04 02:28:08;;;;;;;11.17;8.13;;;8.00;77.50;7.80;95922.00;;;;5105046;28;20314;-85
2022/12/04 02:30:41;;;;;;;12.37;7.90;;;8.00;77.60;7.80;95921.00;;;;5104539;28;20276;-84
2022/12/04 02:33:22;;;;;;;9.93;7.13;;;8.00;77.50;7.80;95916.00;;;;5103971;28;20348;-85
2022/12/04 02:35:59;;;;;;;10.10;7.57;;;8.00;77.50;7.90;95912.00;;;;5103435;28;20279;-85
2022/12/04 02:38:33;;;;;;;12.50;8.17;;;8.00;77.60;7.90;95923.00;;;;5105289;28;20281;-85
2022/12/04 02:41:11;;;;;;;11.27;7.67;;;8.00;77.60;7.90;95924.00;;;;5103251;28;20209;-85
2022/12/04 02:43:45;;;;;;;11.70;8.03;;;8.10;77.80;7.90;95932.00;;;;5104120;28;20711;-84
2022/12/04 02:46:21;;;;;;;12.60;7.87;;;8.00;77.80;7.90;95936.00;;;;5104095;28;20297;-84
2022/12/04 02:48:53;;;;;;;13.73;8.50;;;8.10;77.70;7.90;95916.00;;;;5104726;28;20200;-85
2022/12/04 02:51:23;;;;;;;10.23;7.50;;;8.10;77.70;7.90;95910.00;;;;5103599;28;20282;-85
2022/12/04 02:53:56;;;;;;;11.37;7.50;;;8.10;77.70;7.90;95912.00;;;;5104856;28;20248;-84
2022/12/04 02:56:28;;;;;;;11.10;7.30;;;8.10;77.70;7.90;95901.00;;;;5103820;28;20232;-84
2022/12/04 02:59:01;;;;;;;12.17;8.20;;;8.10;77.60;7.90;95903.00;;;;5105086;28;20969;-83
2022/12/04 03:01:35;;;;;;;9.90;7.03;;;8.10;77.60;7.90;95907.00;;;;5104917;28;20269;-84
2022/12/04 03:04:11;;;;;;;12.27;7.80;;;8.10;77.60;7.90;95903.00;;;;5104086;28;20788;-85
2022/12/04 03:06:43;;;;;;;10.53;7.17;;;8.20;77.70;8.00;95901.00;;;;5105048;28;20226;-85
2022/12/04 03:09:18;;;;;;;11.27;7.80;;;8.20;77.60;8.00;95895.00;;;;5104427;28;20222;-85
2022/12/04 03:11:52;;;;;;;12.87;7.50;;;8.20;77.70;8.00;95892.00;;;;5102703;28;20199;-84
2022/12/04 03:14:26;;;;;;;11.47;7.17;;;8.20;77.70;8.00;95885.00;;;;5104683;28;20660;-85
2022/12/04 03:17:02;;;;;;;12.13;7.70;;;8.20;78.50;8.00;95892.00;;;;5103796;28;20260;-85
2022/12/04 03:19:39;;;;;;;13.63;8.50;;;8.20;77.80;8.00;95888.00;;;;5105399;28;20199;-84
2022/12/04 03:22:13;;;;;;;12.10;7.53;;;8.20;77.80;8.10;95881.00;;;;5104556;28;20289;-83
2022/12/04 03:24:46;;;;;;;13.30;8.30;;;8.20;77.80;8.00;95892.00;;;;5102764;28;20191;-84
2022/12/04 03:27:26;;;;;;;12.37;8.30;;;8.20;77.70;8.10;95887.00;;;;5104896;28;20199;-85
2022/12/04 03:30:03;;;;;;;11.57;8.20;;;8.20;77.60;8.10;95896.00;;;;5103270;28;20194;-84
2022/12/04 03:32:39;;;;;;;10.90;8.30;;;8.30;77.70;8.10;95893.00;;;;5103842;28;20329;-84
2022/12/04 03:35:15;;;;;;;15.07;8.67;;;8.30;77.70;8.10;95900.00;;;;5104847;28;20650;-85
2022/12/04 03:37:50;;;;;;;11.83;8.53;;;8.30;77.70;8.10;95898.00;;;;5104603;28;20198;-84
2022/12/04 03:40:26;;;;;;;16.57;8.50;;;8.30;77.70;8.10;95890.00;;;;5104864;28;20205;-85
2022/12/04 03:43:02;;;;;;;14.10;8.60;;;8.30;77.70;8.10;95906.00;;;;5104345;28;20228;-84
2022/12/04 03:45:43;;;;;;;10.07;8.03;;;8.30;77.60;8.10;95896.00;;;;5103216;28;20673;-85
2022/12/04 03:48:20;;;;;;;9.93;7.40;;;8.30;77.60;8.10;95898.00;;;;5105157;28;20303;-85
2022/12/04 03:50:54;;;;;;;11.57;8.40;;;8.30;77.70;8.10;95903.00;;;;5105663;28;20878;-85
2022/12/04 03:53:30;;;;;;;11.80;8.23;;;8.30;77.70;8.10;95903.00;;;;5102289;28;20230;-84
2022/12/04 03:56:13;;;;;;;12.20;7.90;;;8.30;77.80;8.10;95905.00;;;;5102679;28;20281;-84
2022/12/04 03:58:46;;;;;;;11.70;7.77;;;8.30;77.80;8.10;95905.00;;;;5103542;28;20191;-83
2022/12/04 04:01:19;;;;;;;11.63;7.97;;;8.30;77.80;8.10;95897.00;;;;5103432;28;20230;-85
2022/12/04 04:03:52;;;;;;;12.43;8.73;;;8.30;77.80;8.10;95906.00;;;;5106827;28;20250;-85
2022/12/04 04:06:26;;;;;;;10.10;7.67;;;8.30;77.80;8.20;95907.00;;;;5107718;28;20277;-85
2022/12/04 04:08:59;;;;;;;12.27;8.63;;;8.30;77.90;8.20;95899.00;;;;5109806;28;20713;-85
2022/12/04 04:11:33;;;;;;;11.30;7.53;;;8.40;77.90;8.20;95893.00;;;;5107644;28;20282;-84
2022/12/04 04:25:29;;;;;;;13.23;8.10;;;8.40;77.90;8.20;95875.00;;;;5108506;28;20205;-84
2022/12/04 04:27:58;;;;;;;10.07;7.80;;;8.40;77.80;8.20;95878.00;;;;5109672;28;20294;-85
2022/12/04 04:30:28;;;;;;;12.93;7.90;;;8.30;77.80;8.20;95869.00;;;;5110387;28;20282;-85
2022/12/04 04:33:06;;;;;;;11.97;8.40;;;8.40;77.90;8.20;95872.00;;;;5105874;28;20322;-85
2022/12/04 04:35:47;;;;;;;10.47;7.67;;;8.40;77.90;8.20;95866.00;;;;5107447;28;20210;-84
2022/12/04 04:38:26;;;;;;;10.80;7.67;;;8.40;77.90;8.20;95873.00;;;;5108961;28;20301;-85
2022/12/04 04:41:01;;;;;;;13.37;8.30;;;8.40;77.90;8.20;95871.00;;;;5108135;28;20293;-85
2022/12/04 04:43:39;;;;;;;11.77;7.60;;;8.40;77.90;8.20;95866.00;;;;5109676;28;20293;-85
2022/12/04 04:46:13;;;;;;;8.77;7.43;;;8.40;77.90;8.20;95877.00;;;;5108644;28;20680;-85
2022/12/04 04:48:48;;;;;;;13.47;7.90;;;8.40;78.00;8.20;95868.00;;;;5107702;28;20277;-85
2022/12/04 04:51:16;;;;;;;9.57;7.00;;;8.40;78.00;8.20;95866.00;;;;5106542;28;20209;-85
2022/12/04 04:53:49;;;;;;;11.80;8.23;;;8.40;78.00;8.20;95865.00;;;;5108345;28;20604;-85
2022/12/04 04:56:16;;;;;;;12.67;8.20;;;8.40;78.00;8.30;95869.00;;;;5106719;28;20336;-86
2022/12/04 04:58:43;;;;;;;15.10;8.23;;;8.40;78.00;8.30;95872.00;;;;5108342;28;20625;-85
2022/12/04 05:01:14;;;;;;;13.30;8.30;;;8.40;78.00;8.30;95866.00;;;;5107818;28;21142;-84
2022/12/04 05:03:43;;;;;;;12.10;8.13;;;8.40;78.00;8.20;95874.00;;;;5106940;28;20250;-85
2022/12/04 05:06:11;;;;;;;11.30;7.87;;;8.40;77.90;8.20;95871.00;;;;5107982;28;20198;-84
2022/12/04 05:08:38;;;;;;;12.43;8.27;;;8.40;78.70;8.20;95871.00;;;;5107032;28;20688;-85
2022/12/04 05:11:07;;;;;;;10.70;7.47;;;8.40;77.90;8.20;95879.00;;;;5105336;28;20244;-85
2022/12/04 05:13:34;;;;;;;13.17;8.80;;;8.40;77.90;8.20;95881.00;;;;5107479;28;20262;-84
2022/12/04 05:16:05;;;;;;;11.43;8.37;;;8.40;77.90;8.20;95872.00;;;;5106703;28;20286;-85
2022/12/04 05:18:34;;;;;;;11.90;8.43;;;8.40;77.90;8.20;95882.00;;;;5107354;28;20286;-85
2022/12/04 05:21:07;;;;;;;13.73;8.43;;;8.40;77.90;8.20;95885.00;;;;5107077;28;20203;-85
2022/12/04 05:23:35;;;;;;;11.30;7.80;;;8.40;78.10;8.20;95884.00;;;;5106159;28;20242;-85
2022/12/04 05:26:04;;;;;;;9.97;7.60;;;8.40;78.10;8.20;95885.00;;;;5105014;28;20241;-84
2022/12/04 05:28:31;;;;;;;15.40;8.53;;;8.40;78.10;8.20;95881.00;;;;5107118;28;20236;-85
2022/12/04 05:31:03;;;;;;;9.97;7.30;;;8.40;78.10;8.30;95878.00;;;;5105681;28;20238;-85
2022/12/04 05:33:31;;;;;;;17.87;8.03;;;8.40;78.10;8.30;95875.00;;;;5107265;28;20290;-85
2022/12/04 05:35:59;;;;;;;11.70;7.63;;;8.40;78.10;8.20;95874.00;;;;5108170;28;20326;-84
2022/12/04 05:38:28;;;;;;;15.97;7.90;;;8.40;78.10;8.30;95873.00;;;;5107030;28;20748;-85
2022/12/04 05:40:57;;;;;;;10.43;7.87;;;8.40;78.20;8.30;95871.00;;;;5108530;28;20210;-85
2022/12/04 05:43:25;;;;;;;11.07;7.43;;;8.40;78.20;8.30;95875.00;;;;5106407;28;20306;-84
2022/12/04 05:45:52;;;;;;;12.20;8.20;;;8.40;78.30;8.30;95867.00;;;;5105502;28;20282;-85
2022/12/04 05:48:19;;;;;;;10.50;7.70;;;8.40;78.20;8.20;95865.00;;;;5106218;28;20232;-85
2022/12/04 05:50:46;;;;;;;9.47;7.37;;;8.40;78.20;8.30;95863.00;;;;5106937;28;20281;-85
2022/12/04 05:53:13;;;;;;;13.17;8.10;;;8.40;78.40;8.30;95874.00;;;;5105188;28;20237;-85
2022/12/04 05:55:42;;;;;;;11.73;8.07;;;8.40;78.40;8.30;95871.00;;;;5105982;28;20210;-85
2022/12/04 05:58:09;;;;;;;10.43;7.50;;;8.40;78.40;8.20;95868.00;;;;5107027;28;20281;-85
2022/12/04 06:00:36;;;;;;;13.83;8.23;;;8.40;78.40;8.20;95875.00;;;;5107623;28;20216;-85
2022/12/04 06:03:03;;;;;;;10.40;8.13;;;8.40;78.30;8.20;95882.00;;;;5105273;28;21195;-84
2022/12/04 06:05:33;;;;;;;11.33;8.23;;;8.40;78.30;8.20;95883.00;;;;5106139;28;20263;-85
2022/12/04 06:08:00;;;;;;;11.47;7.53;;;8.40;78.20;8.20;95886.00;;;;5105237;28;20285;-85
2022/12/04 06:10:28;;;;;;;11.50;8.20;;;8.40;78.10;8.20;95885.00;;;;5105280;28;20627;-84
2022/12/04 06:12:57;;;;;;;13.30;7.50;;;8.40;78.10;8.20;95880.00;;;;5107957;28;20661;-85
2022/12/04 06:15:24;;;;;;;12.80;7.87;;;8.40;78.20;8.20;95876.00;;;;5105450;28;20240;-85
2022/12/04 06:17:51;;;;;;;12.00;7.47;;;8.40;78.30;8.20;95871.00;;;;5106303;28;20213;-85
2022/12/04 06:20:20;;;;;;;11.17;8.23;;;8.40;78.40;8.30;95866.00;;;;5105745;28;20305;-85
2022/12/04 06:22:47;;;;;;;11.97;8.77;;;8.40;78.50;8.30;95881.00;;;;5107242;28;20305;-85
2022/12/04 06:25:14;;;;;;;11.87;7.53;;;8.40;78.50;8.30;95882.00;;;;5104770;28;20281;-85
2022/12/04 06:27:43;;;;;;;11.90;8.40;;;8.50;78.60;8.30;95886.00;;;;5104147;28;20317;-85
2022/12/04 06:30:12;;;;;;;12.27;8.73;;;8.40;78.50;8.30;95884.00;;;;5105349;28;20245;-85
2022/12/04 06:32:39;;;;;;;12.40;7.80;;;8.50;78.60;8.30;95879.00;;;;5103561;28;20325;-83
2022/12/04 06:35:07;;;;;;;10.60;8.57;;;8.50;78.50;8.30;95876.00;;;;5105501;28;20222;-83
2022/12/04 06:37:34;;;;;;;13.07;7.70;;;8.50;78.50;8.30;95873.00;;;;5106109;28;20198;-85
2022/12/04 06:40:02;;;;;;;13.50;9.00;;;8.50;78.50;8.30;95874.00;;;;5105640;28;20199;-85
2022/12/04 06:42:29;;;;;;;12.53;8.20;;;8.50;78.50;8.40;95875.00;;;;5104626;28;20719;-84
2022/12/04 06:44:56;;;;;;;14.90;9.63;;;8.50;78.60;8.40;95874.00;;;;5105166;28;21292;-85
2022/12/04 06:47:25;;;;;;;13.87;9.80;;;8.50;78.60;8.40;95864.00;;;;5106190;28;20256;-85
2022/12/04 06:49:52;;;;;;;14.90;9.97;;;8.50;78.70;8.40;95865.00;;;;5104887;28;20209;-84
2022/12/04 06:52:19;;;;;;;14.10;9.33;;;8.50;78.70;8.40;95866.00;;;;5105009;28;20723;-85
2022/12/04 06:54:46;;;;;;;15.50;10.47;;;8.50;78.70;8.40;95865.00;;;;5103808;28;20219;-85
2022/12/04 06:57:13;;;;;;;16.57;10.13;;;8.60;78.70;8.40;95861.00;;;;5106221;28;20350;-85
2022/12/04 06:59:40;;;;;;;15.53;10.07;;;8.50;78.60;8.40;95874.00;;;;5105063;28;20194;-85
2022/12/04 07:02:10;;;;;;;15.37;10.10;;;8.50;78.50;8.40;95867.00;;;;5101785;28;20235;-85
2022/12/04 07:04:39;;;;;;;15.90;9.93;;;8.50;78.60;8.40;95868.00;;;;5105373;28;20233;-85
2022/12/04 07:07:09;;;;;;;15.97;10.10;;;8.50;78.60;8.40;95870.00;;;;5105448;28;20207;-85
2022/12/04 07:09:38;;;;;;;17.10;10.90;;;8.50;78.70;8.40;95856.00;;;;5104292;28;20603;-84
2022/12/04 07:12:06;;;;;;;16.73;9.93;;;8.50;78.70;8.40;95857.00;;;;5105071;28;21070;-85
2022/12/04 07:14:33;;;;;;;15.40;9.53;;;8.50;78.70;8.40;95882.00;;;;5104378;28;20241;-85
2022/12/04 07:17:01;;;;;;;13.77;9.03;;;8.50;78.70;8.40;95879.00;;;;5103252;28;20195;-85
2022/12/04 07:19:28;;;;;;;14.97;9.17;;;8.50;78.70;8.40;95897.00;;;;5105955;28;20285;-85
2022/12/04 07:21:56;;;;;;;12.67;8.90;;;8.50;78.70;8.40;95906.00;;;;5105669;28;20208;-85
2022/12/04 07:24:23;;;;;;;13.97;8.43;;;8.50;78.80;8.40;95903.00;;;;5104852;28;20653;-84
2022/12/04 07:26:50;;;;;;;13.87;9.73;;;8.50;78.80;8.40;95903.00;;;;5105204;28;20226;-85
2022/12/04 07:29:17;;;;;;;17.57;9.50;;;8.50;78.80;8.40;95910.00;;;;5105659;28;20314;-85
2022/12/04 07:31:45;;;;;;;15.10;9.33;;;8.50;78.80;8.40;95898.00;;;;5103227;28;20230;-89
2022/12/04 07:34:12;;;;;;;13.33;8.80;;;8.50;78.80;8.40;95908.00;;;;5106255;28;20286;-88
2022/12/04 07:36:40;;;;;;;12.70;8.97;;;8.60;78.80;8.50;95887.00;;;;5106246;28;21143;-88
2022/12/04 07:39:09;;;;;;;13.17;8.97;;;8.60;78.80;8.50;95881.00;;;;5106330;28;20642;-88
2022/12/04 07:41:36;;;;;;;16.53;9.73;;;8.50;78.80;8.50;95878.00;;;;5105034;28;20213;-88
2022/12/04 07:44:03;;;;;;;12.73;8.73;;;8.60;78.80;8.60;95873.00;;;;5108782;28;20294;-88
2022/12/04 07:46:30;;;;;;;12.37;7.93;;;8.60;78.70;8.50;95855.00;;;;5108152;28;20210;-88
2022/12/04 07:48:59;;;;;;;11.80;8.27;;;8.60;78.60;8.50;95841.00;;;;5107431;28;20282;-88
2022/12/04 07:51:29;;;;;;;12.97;8.83;;;8.60;78.50;8.60;95849.00;;;;5104566;28;20286;-88
2022/12/04 07:53:58;;;;;;;13.27;8.53;;;8.70;78.60;8.50;95846.00;;;;5108753;28;20280;-88
2022/12/04 07:56:26;;;;;;;13.00;8.77;;;8.60;78.50;8.50;95864.00;;;;5108734;28;20203;-88
2022/12/04 07:58:54;;;;;;;14.60;8.80;;;8.50;78.30;8.50;95875.00;;;;5110651;28;20285;-87
2022/12/04 08:01:23;;;;;;;10.00;7.50;;;8.60;78.50;8.50;95890.00;;;;5107626;28;20222;-88
2022/12/04 08:03:55;;;;;;;11.23;7.33;;;8.50;78.50;8.60;95890.00;;;;5107596;28;20327;-89
2022/12/04 08:06:28;;;;;;;11.27;8.00;;;8.60;78.60;8.60;95885.00;;;;5106977;28;20690;-88
2022/12/04 08:08:56;;;;;;;10.23;7.77;;;8.60;78.70;8.60;95898.00;;;;5111442;28;20282;-88
2022/12/04 08:11:27;;;;;;;13.37;8.50;;;8.60;78.70;8.60;95889.00;;;;5108822;28;20207;-89
2022/12/04 08:13:55;;;;;;;14.13;8.87;;;8.60;78.60;8.70;95880.00;;;;5105882;28;20221;-87
2022/12/04 08:16:23;;;;;;;12.43;8.30;;;8.60;78.60;8.70;95878.00;;;;5104139;28;20229;-89
2022/12/04 08:18:50;;;;;;;11.73;8.03;;;8.70;78.60;8.70;95874.00;;;;5107275;28;20219;-88
2022/12/04 08:21:21;;;;;;;14.80;8.17;;;8.70;78.50;8.70;95873.00;;;;5108847;28;20222;-87
2022/12/04 08:23:50;;;;;;;12.53;8.67;;;8.70;78.40;8.70;95874.00;;;;5107489;28;20242;-87
2022/12/04 08:26:20;;;;;;;10.17;7.70;;;8.70;78.20;8.70;95881.00;;;;5110003;28;20202;-88
2022/12/04 08:28:52;;;;;;;11.23;8.43;;;8.70;78.30;8.70;95878.00;;;;5111141;28;20206;-88
2022/12/04 08:31:22;;;;;;;13.37;8.43;;;8.70;78.40;8.70;95879.00;;;;5110890;28;20223;-88
2022/12/04 08:33:53;;;;;;;13.20;8.23;;;8.70;78.50;8.70;95881.00;;;;5111197;28;20313;-89
2022/12/04 08:36:21;;;;;;;12.10;8.27;;;8.70;78.60;8.70;95885.00;;;;5109091;28;20330;-88
2022/12/04 08:38:49;;;;;;;11.90;8.67;;;8.70;78.60;8.80;95882.00;;;;5112484;28;20241;-88
2022/12/04 08:41:20;;;;;;;16.13;8.87;;;8.70;78.60;8.80;95883.00;;;;5111628;28;20665;-89
2022/12/04 08:43:49;;;;;;;12.63;8.67;;;8.70;78.40;8.80;95876.00;;;;5111881;28;20221;-88
2022/12/04 08:46:18;;;;;;;15.03;7.93;;;8.80;78.40;8.80;95875.00;;;;5110486;28;20281;-89
2022/12/04 08:48:47;;;;;;;11.40;7.83;;;8.80;78.30;8.80;95890.00;;;;5107358;28;20282;-89
2022/12/04 08:51:17;;;;;;;11.63;8.37;;;8.80;78.40;8.80;95909.00;;;;5109913;28;20202;-88
2022/12/04 08:53:45;;;;;;;12.53;8.17;;;8.80;78.40;8.80;95913.00;;;;5108908;28;20254;-87
2022/12/04 08:56:13;;;;;;;19.73;8.27;;;8.80;78.30;8.90;95906.00;;;;5107904;28;20237;-88
2022/12/04 08:58:40;;;;;;;10.60;7.73;;;8.80;78.30;8.90;95892.00;;;;5112136;28;20285;-88
2022/12/04 09:01:11;;;;;;;12.00;8.13;;;8.80;78.40;8.90;95888.00;;;;5106667;28;20628;-89
2022/12/04 09:03:39;;;;;;;13.47;8.63;;;8.90;78.50;8.90;95892.00;;;;5110213;28;20230;-88
2022/12/04 09:06:12;;;;;;;11.50;7.57;;;8.90;78.60;9.00;95888.00;;;;5109526;28;20206;-88
2022/12/04 09:08:40;;;;;;;11.90;8.47;;;8.90;78.50;9.00;95897.00;;;;5110283;28;20194;-87
2022/12/04 09:11:11;;;;;;;11.07;8.23;;;8.90;78.50;9.00;95883.00;;;;5108818;28;20203;-88
2022/12/04 09:13:40;;;;;;;13.10;8.20;;;9.00;78.70;9.00;95887.00;;;;5113780;28;20333;-89
2022/12/04 09:16:17;;;;;;;12.23;7.77;;;9.00;78.50;9.00;95893.00;;;;5111378;28;20246;-88
2022/12/04 09:18:46;;;;;;;10.77;7.50;;;9.00;78.20;9.00;95902.00;;;;5113788;28;20861;-89
2022/12/04 09:21:30;;;;;;;12.13;7.87;;;9.00;78.20;9.00;95898.00;;;;5113026;28;20673;-88
2022/12/04 09:23:59;;;;;;;11.17;7.87;;;9.00;78.30;9.10;95909.00;;;;5112259;28;20222;-89
2022/12/04 09:26:29;;;;;;;12.97;7.60;;;9.10;79.10;9.10;95905.00;;;;5108936;28;20195;-88
2022/12/04 09:29:00;;;;;;;14.03;8.13;;;9.00;78.30;9.10;95908.00;;;;5109935;28;20256;-88
2022/12/04 09:31:29;;;;;;;11.90;7.57;;;9.10;78.30;9.10;95883.00;;;;5108502;28;21005;-89
2022/12/04 09:33:58;;;;;;;11.10;8.17;;;9.30;78.30;9.20;95884.00;;;;5111219;28;20693;-88
2022/12/04 09:36:26;;;;;;;9.77;7.80;;;9.10;78.20;9.20;95874.00;;;;5111645;28;20203;-89
2022/12/04 09:38:55;;;;;;;11.50;8.03;;;9.00;78.20;9.20;95863.00;;;;5112153;28;20244;-87
2022/12/04 09:42:30;;;;;;;9.47;7.43;;;9.00;78.20;9.20;95850.00;;;;5110323;28;20245;-88
2022/12/04 09:45:08;;;;;;;7.90;6.67;;;9.20;78.20;9.20;95844.00;;;;4972301;28;20206;-88
2022/12/04 09:47:42;;;;;;;9.37;7.00;;;9.20;78.10;9.20;95840.00;;;;4999625;28;20712;-87
2022/12/04 09:50:18;;;;;;;11.37;7.53;;;9.20;78.00;9.20;95843.00;;;;5064392;28;20199;-88
2022/12/04 09:52:56;;;;;;;10.13;7.53;;;9.20;77.90;9.20;95839.00;;;;5107344;28;20226;-88
2022/12/04 09:55:28;;;;;;;8.87;7.33;;;9.20;78.00;9.20;95843.00;;;;5108204;28;20236;-89
2022/12/04 09:58:00;;;;;;;10.17;6.83;;;9.20;78.10;9.20;95842.00;;;;5110113;28;20270;-87
2022/12/04 10:00:32;;;;;;;8.93;6.80;;;9.20;78.20;9.20;95846.00;;;;5105262;28;20255;-88
2022/12/04 10:03:05;;;;;;;9.80;7.03;;;9.20;78.20;9.30;95842.00;;;;5108458;28;20218;-89
2022/12/04 10:05:49;;;;;;;9.93;6.50;;;9.20;78.10;9.30;95849.00;;;;5107330;28;20549;-88
2022/12/04 10:08:22;;;;;;;9.10;6.83;;;9.20;78.00;9.30;95844.00;;;;5107983;28;20240;-89
2022/12/04 10:11:04;;;;;;;9.53;7.03;;;9.10;77.90;9.30;95844.00;;;;5103804;28;20339;-88
2022/12/04 10:14:09;;;;;;;9.23;7.20;;;9.20;77.80;9.30;95843.00;;;;5105167;28;20218;-89
2022/12/04 10:16:57;;;;;;;7.80;6.07;;;9.30;77.60;9.30;95848.00;;;;5074320;28;20354;-89
2022/12/04 10:19:37;;;;;;;8.60;6.83;;;9.30;77.70;9.30;95855.00;;;;5104467;28;20297;-89
2022/12/04 10:22:13;;;;;;;8.87;6.87;;;9.20;77.60;9.30;95854.00;;;;5108121;28;20863;-88
2022/12/04 10:24:47;;;;;;;9.40;6.97;;;9.10;77.60;9.30;95843.00;;;;5103614;28;20781;-89
2022/12/04 10:27:23;;;;;;;9.33;6.43;;;9.30;77.80;9.30;95849.00;;;;5107304;28;20211;-89
2022/12/04 10:29:57;;;;;;;9.70;7.43;;;9.30;77.70;9.30;95837.00;;;;5107016;28;21100;-90
2022/12/04 10:32:31;;;;;;;11.20;6.67;;;9.30;77.60;9.30;95819.00;;;;5105003;28;20206;-90
2022/12/04 10:35:15;;;;;;;8.90;7.13;;;9.30;77.50;9.20;95820.00;;;;5106459;28;20252;-89
2022/12/04 10:37:45;;;;;;;7.97;6.57;;;9.30;77.40;9.20;95809.00;;;;5105570;28;20251;-89
2022/12/04 10:40:21;;;;;;;8.47;6.17;;;9.20;77.40;9.20;95808.00;;;;5107122;28;20298;-89
2022/12/04 10:42:58;;;;;;;9.60;7.07;;;9.20;77.40;9.20;95822.00;;;;5106775;28;20287;-89
2022/12/04 10:45:25;;;;;;;8.63;6.87;;;9.30;77.60;9.30;95800.00;;;;5104534;28;20207;-89
2022/12/04 10:47:53;;;;;;;8.97;6.70;;;9.20;77.60;9.30;95798.00;;;;5106673;28;20206;-89
2022/12/04 10:50:24;;;;;;;10.20;7.43;;;9.20;77.50;9.30;95794.00;;;;5107044;28;20293;-89
2022/12/04 10:52:52;;;;;;;11.60;7.20;;;9.30;77.60;9.30;95793.00;;;;5105603;28;21266;-89
2022/12/04 10:55:30;;;;;;;9.23;6.87;;;9.30;77.60;9.30;95773.00;;;;5106961;28;20276;-89
2022/12/04 10:57:57;;;;;;;6.93;6.13;;;9.20;78.10;9.30;95787.00;;;;5107194;28;20221;-89
2022/12/04 11:00:29;;;;;;;9.93;6.97;;;9.30;77.30;9.30;95791.00;;;;5105649;28;20286;-89
2022/12/04 11:03:00;;;;;;;9.70;6.40;;;9.30;77.30;9.30;95781.00;;;;5104080;28;20297;-89
2022/12/04 11:05:34;;;;;;;9.93;7.70;;;9.30;77.40;9.30;95781.00;;;;5106662;28;20233;-89
2022/12/04 11:08:06;;;;;;;9.00;6.10;;;9.30;77.50;9.30;95778.00;;;;5106316;28;20254;-89
2022/12/04 11:10:37;;;;;;;8.63;6.77;;;9.30;77.40;9.30;95775.00;;;;5105038;28;20305;-89
2022/12/04 11:13:15;;;;;;;7.93;6.73;;;9.30;77.40;9.30;95776.00;;;;5104458;28;20219;-89
2022/12/04 11:15:45;;;;;;;8.30;6.60;;;9.30;77.30;9.30;95793.00;;;;5104616;28;20253;-89
2022/12/04 11:18:22;;;;;;;9.70;7.47;;;9.30;77.30;9.30;95777.00;;;;5104586;28;20277;-89
2022/12/04 11:20:55;;;;;;;9.97;6.83;;;9.30;77.20;9.30;95781.00;;;;5102823;28;20221;-89
2022/12/04 11:23:23;;;;;;;8.30;6.67;;;9.30;77.20;9.30;95783.00;;;;5105100;28;20306;-89
2022/12/04 11:25:56;;;;;;;8.93;6.23;;;9.30;77.40;9.30;95788.00;;;;5103357;28;20289;-89
2022/12/04 11:28:29;;;;;;;7.87;7.07;;;9.30;77.50;9.30;95772.00;;;;5104237;28;20290;-89
2022/12/04 11:31:01;;;;;;;9.23;7.10;;;9.30;77.50;9.30;95776.00;;;;5105416;28;20211;-89
2022/12/04 11:33:45;;;;;;;7.73;6.13;;;9.30;77.40;9.40;95777.00;;;;5104512;28;20305;-89
2022/12/04 11:36:23;;;;;;;8.57;6.63;;;9.30;77.60;9.40;95760.00;;;;5096924;28;20306;-89